sensor_id;sensor_type;location;lat;lon;timestamp;pressure;altitude;pressure_sealevel;temperature;humidity
17764;BME280;22245;52.832;13.816;2023-07-30T00:03:17;100571.69;;;18.05;95.36
17764;BME280;22245;52.832;13.816;2023-07-30T00:06:39;100572.06;;;18.02;95.42
17764;BME280;22245;52.832;13.816;2023-07-30T00:10:00;100578.63;;;18.00;95.17
17764;BME280;22245;52.832;13.816;2023-07-30T00:13:22;100575.25;;;17.98;95.10
17764;BME280;22245;52.832;13.816;2023-07-30T00:16:43;100566.09;;;17.92;95.15
17764;BME280;22245;52.832;13.816;2023-07-30T00:20:07;100563.75;;;17.89;95.63
17764;BME280;22245;52.832;13.816;2023-07-30T00:23:29;100561.22;;;17.87;95.51
17764;BME280;22245;52.832;13.816;2023-07-30T00:26:51;100566.34;;;17.82;95.40
17764;BME280;22245;52.832;13.816;2023-07-30T00:30:12;100569.22;;;17.81;95.37
17764;BME280;22245;52.832;13.816;2023-07-30T00:33:34;100578.50;;;17.78;95.61
17764;BME280;22245;52.832;13.816;2023-07-30T00:36:57;100586.47;;;17.71;95.55
17764;BME280;22245;52.832;13.816;2023-07-30T00:40:19;100586.47;;;17.71;95.13
17764;BME280;22245;52.832;13.816;2023-07-30T00:43:41;100592.69;;;17.72;95.42
17764;BME280;22245;52.832;13.816;2023-07-30T00:47:02;100585.66;;;17.71;94.66
17764;BME280;22245;52.832;13.816;2023-07-30T00:50:25;100585.81;;;17.69;94.52
17764;BME280;22245;52.832;13.816;2023-07-30T00:53:48;100578.59;;;17.70;94.79
17764;BME280;22245;52.832;13.816;2023-07-30T00:57:10;100572.72;;;17.66;94.22
17764;BME280;22245;52.832;13.816;2023-07-30T01:00:32;100584.50;;;17.65;94.32
17764;BME280;22245;52.832;13.816;2023-07-30T01:03:54;100579.47;;;17.62;94.57
17764;BME280;22245;52.832;13.816;2023-07-30T01:07:15;100580.03;;;17.57;94.18
17764;BME280;22245;52.832;13.816;2023-07-30T01:10:40;100577.53;;;17.56;94.54
17764;BME280;22245;52.832;13.816;2023-07-30T01:14:03;100575.56;;;17.49;94.09
17764;BME280;22245;52.832;13.816;2023-07-30T01:17:26;100581.09;;;17.48;94.61
17764;BME280;22245;52.832;13.816;2023-07-30T01:24:12;100588.03;;;17.42;94.03
17764;BME280;22245;52.832;13.816;2023-07-30T01:27:38;100586.06;;;17.36;94.20
17764;BME280;22245;52.832;13.816;2023-07-30T01:31:02;100592.84;;;17.32;94.17
17764;BME280;22245;52.832;13.816;2023-07-30T01:34:27;100592.38;;;17.28;94.07
17764;BME280;22245;52.832;13.816;2023-07-30T01:37:50;100587.34;;;17.25;94.50
17764;BME280;22245;52.832;13.816;2023-07-30T01:41:14;100588.53;;;17.23;94.23
17764;BME280;22245;52.832;13.816;2023-07-30T01:44:36;100587.22;;;17.18;94.55
17764;BME280;22245;52.832;13.816;2023-07-30T01:47:59;100580.69;;;17.13;94.35
17764;BME280;22245;52.832;13.816;2023-07-30T01:51:20;100589.31;;;17.08;95.09
17764;BME280;22245;52.832;13.816;2023-07-30T01:54:42;100591.69;;;17.03;94.67
17764;BME280;22245;52.832;13.816;2023-07-30T01:58:06;100601.13;;;16.99;94.59
17764;BME280;22245;52.832;13.816;2023-07-30T02:01:27;100602.97;;;16.98;94.79
17764;BME280;22245;52.832;13.816;2023-07-30T02:04:49;100606.81;;;16.96;94.48
17764;BME280;22245;52.832;13.816;2023-07-30T02:08:10;100608.38;;;16.90;94.60
17764;BME280;22245;52.832;13.816;2023-07-30T02:11:33;100604.19;;;16.87;94.72
17764;BME280;22245;52.832;13.816;2023-07-30T02:14:57;100608.91;;;16.85;94.72
17764;BME280;22245;52.832;13.816;2023-07-30T02:18:19;100612.59;;;16.84;94.80
17764;BME280;22245;52.832;13.816;2023-07-30T02:21:43;100607.38;;;16.83;95.14
17764;BME280;22245;52.832;13.816;2023-07-30T02:25:05;100613.13;;;16.79;95.23
17764;BME280;22245;52.832;13.816;2023-07-30T02:28:28;100612.47;;;16.77;94.79
17764;BME280;22245;52.832;13.816;2023-07-30T02:31:51;100608.94;;;16.77;94.45
17764;BME280;22245;52.832;13.816;2023-07-30T02:35:13;100610.78;;;16.76;94.46
17764;BME280;22245;52.832;13.816;2023-07-30T02:38:35;100616.50;;;16.73;94.24
17764;BME280;22245;52.832;13.816;2023-07-30T02:41:56;100623.75;;;16.73;94.03
17764;BME280;22245;52.832;13.816;2023-07-30T02:45:18;100623.91;;;16.71;94.50
17764;BME280;22245;52.832;13.816;2023-07-30T02:48:41;100621.75;;;16.67;94.17
17764;BME280;22245;52.832;13.816;2023-07-30T02:52:04;100617.06;;;16.60;94.22
17764;BME280;22245;52.832;13.816;2023-07-30T02:55:26;100621.97;;;16.57;94.50
17764;BME280;22245;52.832;13.816;2023-07-30T02:58:48;100620.66;;;16.53;94.42
17764;BME280;22245;52.832;13.816;2023-07-30T03:02:10;100622.00;;;16.48;94.26
17764;BME280;22245;52.832;13.816;2023-07-30T03:05:33;100630.22;;;16.47;94.49
17764;BME280;22245;52.832;13.816;2023-07-30T03:08:55;100634.94;;;16.45;94.64
17764;BME280;22245;52.832;13.816;2023-07-30T03:12:17;100634.28;;;16.43;94.69
17764;BME280;22245;52.832;13.816;2023-07-30T03:15:39;100633.97;;;16.38;94.45
17764;BME280;22245;52.832;13.816;2023-07-30T03:19:00;100632.63;;;16.33;95.22
17764;BME280;22245;52.832;13.816;2023-07-30T03:22:23;100638.34;;;16.30;94.97
17764;BME280;22245;52.832;13.816;2023-07-30T03:25:45;100646.72;;;16.27;95.01
17764;BME280;22245;52.832;13.816;2023-07-30T03:29:06;100639.69;;;16.26;95.10
17764;BME280;22245;52.832;13.816;2023-07-30T03:32:28;100638.84;;;16.26;95.17
17764;BME280;22245;52.832;13.816;2023-07-30T03:35:50;100641.88;;;16.23;95.50
17764;BME280;22245;52.832;13.816;2023-07-30T03:39:13;100647.59;;;16.19;95.37
17764;BME280;22245;52.832;13.816;2023-07-30T03:42:36;100643.25;;;16.18;95.89
17764;BME280;22245;52.832;13.816;2023-07-30T03:45:57;100643.41;;;16.17;96.14
17764;BME280;22245;52.832;13.816;2023-07-30T03:49:19;100644.25;;;16.17;96.45
17764;BME280;22245;52.832;13.816;2023-07-30T03:52:41;100646.09;;;16.17;96.40
17764;BME280;22245;52.832;13.816;2023-07-30T03:56:05;100646.09;;;16.17;96.72
17764;BME280;22245;52.832;13.816;2023-07-30T03:59:27;100641.38;;;16.19;96.63
17764;BME280;22245;52.832;13.816;2023-07-30T04:02:49;100651.09;;;16.20;96.47
17764;BME280;22245;52.832;13.816;2023-07-30T04:06:11;100661.84;;;16.20;96.29
17764;BME280;22245;52.832;13.816;2023-07-30T04:09:32;100656.47;;;16.20;96.55
17764;BME280;22245;52.832;13.816;2023-07-30T04:12:55;100655.47;;;16.21;96.62
17764;BME280;22245;52.832;13.816;2023-07-30T04:16:17;100662.19;;;16.25;96.82
17764;BME280;22245;52.832;13.816;2023-07-30T04:19:39;100654.13;;;16.25;96.12
17764;BME280;22245;52.832;13.816;2023-07-30T04:23:00;100658.47;;;16.26;96.91
17764;BME280;22245;52.832;13.816;2023-07-30T04:26:22;100665.38;;;16.29;97.29
17764;BME280;22245;52.832;13.816;2023-07-30T04:29:45;100663.19;;;16.32;97.19
17764;BME280;22245;52.832;13.816;2023-07-30T04:33:07;100662.00;;;16.35;97.21
17764;BME280;22245;52.832;13.816;2023-07-30T04:36:31;100671.59;;;16.38;97.29
17764;BME280;22245;52.832;13.816;2023-07-30T04:39:52;100681.31;;;16.39;97.47
17764;BME280;22245;52.832;13.816;2023-07-30T04:43:14;100672.56;;;16.45;97.80
17764;BME280;22245;52.832;13.816;2023-07-30T04:46:39;100671.22;;;16.49;97.50
17764;BME280;22245;52.832;13.816;2023-07-30T04:50:01;100673.41;;;16.54;97.61
17764;BME280;22245;52.832;13.816;2023-07-30T04:53:23;100678.25;;;16.58;96.99
17764;BME280;22245;52.832;13.816;2023-07-30T04:56:45;100676.53;;;16.66;97.55
17764;BME280;22245;52.832;13.816;2023-07-30T05:00:07;100678.91;;;16.69;97.11
17764;BME280;22245;52.832;13.816;2023-07-30T05:03:30;100670.97;;;16.75;97.18
17764;BME280;22245;52.832;13.816;2023-07-30T05:06:53;100684.56;;;16.82;97.11
17764;BME280;22245;52.832;13.816;2023-07-30T05:10:14;100689.59;;;16.85;96.94
17764;BME280;22245;52.832;13.816;2023-07-30T05:13:36;100683.69;;;16.90;97.47
17764;BME280;22245;52.832;13.816;2023-07-30T05:16:58;100685.53;;;16.98;97.11
17764;BME280;22245;52.832;13.816;2023-07-30T05:27:51;100696.41;;;17.13;96.43
17764;BME280;22245;52.832;13.816;2023-07-30T05:31:13;100697.38;;;17.20;96.48
17764;BME280;22245;52.832;13.816;2023-07-30T05:34:34;100703.91;;;17.26;96.24
17764;BME280;22245;52.832;13.816;2023-07-30T05:37:56;100695.13;;;17.32;95.70
17764;BME280;22245;52.832;13.816;2023-07-30T05:41:18;100694.06;;;17.41;95.74
17764;BME280;22245;52.832;13.816;2023-07-30T05:44:42;100693.00;;;17.50;95.43
17764;BME280;22245;52.832;13.816;2023-07-30T05:48:04;100694.63;;;17.60;94.14
17764;BME280;22245;52.832;13.816;2023-07-30T05:51:26;100699.94;;;17.68;93.86
17764;BME280;22245;52.832;13.816;2023-07-30T05:54:48;100689.09;;;17.76;92.79
17764;BME280;22245;52.832;13.816;2023-07-30T05:58:09;100690.09;;;17.84;92.88
17764;BME280;22245;52.832;13.816;2023-07-30T06:01:32;100678.59;;;17.90;93.01
17764;BME280;22245;52.832;13.816;2023-07-30T06:04:54;100679.53;;;17.97;91.88
17764;BME280;22245;52.832;13.816;2023-07-30T06:08:16;100682.16;;;18.05;90.79
17764;BME280;22245;52.832;13.816;2023-07-30T06:11:37;100677.91;;;18.11;90.23
17764;BME280;22245;52.832;13.816;2023-07-30T06:14:59;100677.84;;;18.19;90.56
17764;BME280;22245;52.832;13.816;2023-07-30T06:18:22;100681.47;;;18.27;90.50
17764;BME280;22245;52.832;13.816;2023-07-30T06:21:43;100677.88;;;18.34;89.25
17764;BME280;22245;52.832;13.816;2023-07-30T06:25:05;100677.97;;;18.41;88.12
17764;BME280;22245;52.832;13.816;2023-07-30T06:28:27;100678.06;;;18.48;87.76
17764;BME280;22245;52.832;13.816;2023-07-30T06:31:49;100695.16;;;18.55;88.33
17764;BME280;22245;52.832;13.816;2023-07-30T06:35:12;100691.38;;;18.64;87.62
17764;BME280;22245;52.832;13.816;2023-07-30T06:38:33;100684.59;;;18.69;87.45
17764;BME280;22245;52.832;13.816;2023-07-30T06:41:58;100688.03;;;18.77;87.17
17764;BME280;22245;52.832;13.816;2023-07-30T06:45:20;100690.63;;;18.86;86.22
17764;BME280;22245;52.832;13.816;2023-07-30T06:48:41;100680.91;;;18.91;83.84
17764;BME280;22245;52.832;13.816;2023-07-30T06:52:05;100674.31;;;18.94;84.61
17764;BME280;22245;52.832;13.816;2023-07-30T06:55:27;100687.66;;;18.95;85.01
17764;BME280;22245;52.832;13.816;2023-07-30T06:58:48;100682.03;;;18.97;84.44
17764;BME280;22245;52.832;13.816;2023-07-30T07:02:10;100674.25;;;19.02;84.26
17764;BME280;22245;52.832;13.816;2023-07-30T07:05:32;100683.47;;;19.08;83.30
17764;BME280;22245;52.832;13.816;2023-07-30T07:08:56;100679.63;;;19.17;82.46
17764;BME280;22245;52.832;13.816;2023-07-30T07:12:18;100682.56;;;19.22;83.30
17764;BME280;22245;52.832;13.816;2023-07-30T07:15:40;100687.03;;;19.30;83.50
17764;BME280;22245;52.832;13.816;2023-07-30T07:19:02;100683.78;;;19.35;82.61
17764;BME280;22245;52.832;13.816;2023-07-30T07:22:23;100686.75;;;19.40;82.88
17764;BME280;22245;52.832;13.816;2023-07-30T07:25:46;100678.50;;;19.48;82.18
17764;BME280;22245;52.832;13.816;2023-07-30T07:29:09;100667.56;;;19.57;81.74
17764;BME280;22245;52.832;13.816;2023-07-30T07:32:30;100669.56;;;19.70;81.13
17764;BME280;22245;52.832;13.816;2023-07-30T07:36:04;100674.19;;;19.76;80.58
17764;BME280;22245;52.832;13.816;2023-07-30T07:39:26;100661.19;;;19.86;80.56
17764;BME280;22245;52.832;13.816;2023-07-30T07:42:50;100663.59;;;19.96;80.45
17764;BME280;22245;52.832;13.816;2023-07-30T07:46:11;100656.81;;;20.07;80.21
17764;BME280;22245;52.832;13.816;2023-07-30T07:49:35;100659.19;;;20.17;79.77
17764;BME280;22245;52.832;13.816;2023-07-30T07:52:57;100661.34;;;20.28;79.08
17764;BME280;22245;52.832;13.816;2023-07-30T07:56:18;100658.06;;;20.33;78.55
17764;BME280;22245;52.832;13.816;2023-07-30T07:59:41;100666.59;;;20.36;76.73
17764;BME280;22245;52.832;13.816;2023-07-30T08:03:05;100673.09;;;20.42;77.09
17764;BME280;22245;52.832;13.816;2023-07-30T08:06:27;100674.75;;;20.43;77.70
17764;BME280;22245;52.832;13.816;2023-07-30T08:09:49;100682.72;;;20.51;77.33
17764;BME280;22245;52.832;13.816;2023-07-30T08:13:12;100668.56;;;20.49;75.09
17764;BME280;22245;52.832;13.816;2023-07-30T08:16:36;100667.72;;;20.49;75.79
17764;BME280;22245;52.832;13.816;2023-07-30T08:19:58;100660.28;;;20.58;76.52
17764;BME280;22245;52.832;13.816;2023-07-30T08:23:19;100657.41;;;20.66;75.19
17764;BME280;22245;52.832;13.816;2023-07-30T08:26:41;100662.66;;;20.74;76.05
17764;BME280;22245;52.832;13.816;2023-07-30T08:30:03;100661.41;;;20.77;76.48
17764;BME280;22245;52.832;13.816;2023-07-30T08:33:26;100664.63;;;20.87;74.83
17764;BME280;22245;52.832;13.816;2023-07-30T08:36:47;100658.19;;;20.88;73.61
17764;BME280;22245;52.832;13.816;2023-07-30T08:40:10;100656.09;;;20.90;73.64
17764;BME280;22245;52.832;13.816;2023-07-30T08:43:34;100659.25;;;21.01;74.21
17764;BME280;22245;52.832;13.816;2023-07-30T08:46:56;100668.19;;;21.01;72.41
17764;BME280;22245;52.832;13.816;2023-07-30T08:50:19;100665.13;;;21.04;73.66
17764;BME280;22245;52.832;13.816;2023-07-30T08:53:42;100662.41;;;21.11;72.79
17764;BME280;22245;52.832;13.816;2023-07-30T08:57:04;100668.69;;;21.18;73.93
17764;BME280;22245;52.832;13.816;2023-07-30T09:00:30;100664.94;;;21.19;70.73
17764;BME280;22245;52.832;13.816;2023-07-30T09:03:52;100663.91;;;21.14;70.33
17764;BME280;22245;52.832;13.816;2023-07-30T09:07:16;100670.13;;;21.07;69.46
17764;BME280;22245;52.832;13.816;2023-07-30T09:10:37;100668.41;;;21.00;69.75
17764;BME280;22245;52.832;13.816;2023-07-30T09:14:01;100669.47;;;20.99;69.39
17764;BME280;22245;52.832;13.816;2023-07-30T09:17:23;100673.84;;;21.00;69.47
17764;BME280;22245;52.832;13.816;2023-07-30T09:20:45;100671.78;;;21.08;69.83
17764;BME280;22245;52.832;13.816;2023-07-30T09:24:10;100668.28;;;21.15;69.53
17764;BME280;22245;52.832;13.816;2023-07-30T09:27:32;100668.50;;;21.20;68.64
17764;BME280;22245;52.832;13.816;2023-07-30T09:30:59;100674.34;;;21.30;68.44
17764;BME280;22245;52.832;13.816;2023-07-30T09:34:44;100673.13;;;21.46;67.87
17764;BME280;22245;52.832;13.816;2023-07-30T09:38:06;100673.97;;;21.53;65.97
17764;BME280;22245;52.832;13.816;2023-07-30T09:41:29;100681.91;;;21.48;64.10
17764;BME280;22245;52.832;13.816;2023-07-30T09:44:51;100681.88;;;21.35;63.92
17764;BME280;22245;52.832;13.816;2023-07-30T09:48:13;100690.97;;;21.20;62.40
17764;BME280;22245;52.832;13.816;2023-07-30T09:51:37;100689.91;;;21.08;62.97
17764;BME280;22245;52.832;13.816;2023-07-30T09:55:00;100690.53;;;21.10;63.42
17764;BME280;22245;52.832;13.816;2023-07-30T09:58:23;100680.56;;;21.17;60.82
17764;BME280;22245;52.832;13.816;2023-07-30T10:01:47;100682.69;;;21.29;60.66
17764;BME280;22245;52.832;13.816;2023-07-30T10:05:11;100681.25;;;21.33;60.58
17764;BME280;22245;52.832;13.816;2023-07-30T10:08:37;100693.59;;;21.49;57.12
17764;BME280;22245;52.832;13.816;2023-07-30T10:12:01;100669.41;;;21.54;57.51
17764;BME280;22245;52.832;13.816;2023-07-30T10:15:26;100687.13;;;21.63;57.03
17764;BME280;22245;52.832;13.816;2023-07-30T10:18:55;100684.66;;;21.68;57.34
17764;BME280;22245;52.832;13.816;2023-07-30T10:22:22;100694.25;;;21.78;57.88
17764;BME280;22245;52.832;13.816;2023-07-30T10:25:47;100686.38;;;21.83;57.05
17764;BME280;22245;52.832;13.816;2023-07-30T10:29:15;100685.31;;;21.84;56.45
17764;BME280;22245;52.832;13.816;2023-07-30T10:32:39;100688.03;;;21.84;53.67
17764;BME280;22245;52.832;13.816;2023-07-30T10:36:02;100690.53;;;21.79;54.57
17764;BME280;22245;52.832;13.816;2023-07-30T10:39:26;100688.84;;;21.71;55.74
17764;BME280;22245;52.832;13.816;2023-07-30T10:42:48;100696.38;;;21.69;54.95
17764;BME280;22245;52.832;13.816;2023-07-30T10:46:12;100707.63;;;21.66;57.03
17764;BME280;22245;52.832;13.816;2023-07-30T10:49:37;100690.72;;;21.64;55.02
17764;BME280;22245;52.832;13.816;2023-07-30T10:53:00;100695.09;;;21.65;55.79
17764;BME280;22245;52.832;13.816;2023-07-30T10:56:23;100691.34;;;21.73;56.85
17764;BME280;22245;52.832;13.816;2023-07-30T10:59:46;100692.81;;;21.75;56.22
17764;BME280;22245;52.832;13.816;2023-07-30T11:03:07;100700.97;;;21.89;55.84
17764;BME280;22245;52.832;13.816;2023-07-30T11:06:31;100695.75;;;21.94;55.82
17764;BME280;22245;52.832;13.816;2023-07-30T11:09:59;100688.88;;;21.98;55.03
17764;BME280;22245;52.832;13.816;2023-07-30T11:13:22;100697.84;;;21.98;53.90
17764;BME280;22245;52.832;13.816;2023-07-30T11:16:48;100689.50;;;22.00;53.80
17764;BME280;22245;52.832;13.816;2023-07-30T11:20:22;100691.38;;;22.06;55.42
17764;BME280;22245;52.832;13.816;2023-07-30T11:23:45;100687.41;;;22.16;53.18
17764;BME280;22245;52.832;13.816;2023-07-30T11:27:07;100688.25;;;22.16;52.96
17764;BME280;22245;52.832;13.816;2023-07-30T11:30:31;100675.72;;;22.15;52.01
17764;BME280;22245;52.832;13.816;2023-07-30T11:33:53;100691.59;;;22.11;53.32
17764;BME280;22245;52.832;13.816;2023-07-30T11:37:15;100693.44;;;22.11;53.80
17764;BME280;22245;52.832;13.816;2023-07-30T11:40:38;100684.06;;;22.14;54.52
17764;BME280;22245;52.832;13.816;2023-07-30T11:44:00;100687.59;;;22.21;54.82
17764;BME280;22245;52.832;13.816;2023-07-30T11:47:22;100686.75;;;22.27;55.13
17764;BME280;22245;52.832;13.816;2023-07-30T11:50:45;100677.78;;;22.33;55.32
17764;BME280;22245;52.832;13.816;2023-07-30T11:54:07;100672.16;;;22.41;54.96
17764;BME280;22245;52.832;13.816;2023-07-30T11:57:34;100677.16;;;22.51;55.77
17764;BME280;22245;52.832;13.816;2023-07-30T12:00:56;100680.28;;;22.55;54.00
17764;BME280;22245;52.832;13.816;2023-07-30T12:04:18;100671.28;;;22.61;54.05
17764;BME280;22245;52.832;13.816;2023-07-30T12:07:40;100667.09;;;22.65;53.76
17764;BME280;22245;52.832;13.816;2023-07-30T12:11:04;100666.88;;;22.74;52.80
17764;BME280;22245;52.832;13.816;2023-07-30T12:14:28;100681.91;;;22.69;52.27
17764;BME280;22245;52.832;13.816;2023-07-30T12:17:52;100670.66;;;22.66;52.50
17764;BME280;22245;52.832;13.816;2023-07-30T12:21:14;100672.31;;;22.74;53.90
17764;BME280;22245;52.832;13.816;2023-07-30T12:24:35;100663.50;;;22.78;52.40
17764;BME280;22245;52.832;13.816;2023-07-30T12:27:57;100667.44;;;22.89;53.65
17764;BME280;22245;52.832;13.816;2023-07-30T12:31:20;100658.00;;;22.98;53.79
17764;BME280;22245;52.832;13.816;2023-07-30T12:34:42;100665.72;;;23.02;52.11
17764;BME280;22245;52.832;13.816;2023-07-30T12:38:04;100663.22;;;23.00;50.59
17764;BME280;22245;52.832;13.816;2023-07-30T12:41:51;100665.31;;;22.98;51.42
17764;BME280;22245;52.832;13.816;2023-07-30T12:45:12;100664.03;;;23.01;52.61
17764;BME280;22245;52.832;13.816;2023-07-30T12:48:36;100653.38;;;23.06;52.59
17764;BME280;22245;52.832;13.816;2023-07-30T12:51:58;100665.06;;;23.13;50.04
17764;BME280;22245;52.832;13.816;2023-07-30T12:55:20;100659.78;;;23.18;49.66
17764;BME280;22245;52.832;13.816;2023-07-30T12:58:41;100657.09;;;23.18;48.37
17764;BME280;22245;52.832;13.816;2023-07-30T13:02:03;100657.09;;;23.18;49.31
17764;BME280;22245;52.832;13.816;2023-07-30T13:05:27;100658.31;;;23.22;48.86
17764;BME280;22245;52.832;13.816;2023-07-30T13:08:48;100661.66;;;23.24;48.55
17764;BME280;22245;52.832;13.816;2023-07-30T13:12:09;100652.47;;;23.25;49.97
17764;BME280;22245;52.832;13.816;2023-07-30T13:15:31;100658.72;;;23.26;47.71
17764;BME280;22245;52.832;13.816;2023-07-30T13:18:53;100654.94;;;23.27;46.79
17764;BME280;22245;52.832;13.816;2023-07-30T13:22:18;100640.09;;;23.23;46.47
17764;BME280;22245;52.832;13.816;2023-07-30T13:25:40;100640.09;;;23.23;46.85
17764;BME280;22245;52.832;13.816;2023-07-30T13:29:01;100644.09;;;23.20;46.58
17764;BME280;22245;52.832;13.816;2023-07-30T13:32:23;100643.66;;;23.23;47.04
17764;BME280;22245;52.832;13.816;2023-07-30T13:35:44;100634.69;;;23.30;46.98
17764;BME280;22245;52.832;13.816;2023-07-30T13:39:07;100636.50;;;23.36;48.60
17764;BME280;22245;52.832;13.816;2023-07-30T13:42:29;100641.31;;;23.40;46.70
17764;BME280;22245;52.832;13.816;2023-07-30T13:45:51;100637.28;;;23.43;46.27
17764;BME280;22245;52.832;13.816;2023-07-30T13:49:13;100634.81;;;23.41;47.13
17764;BME280;22245;52.832;13.816;2023-07-30T13:52:34;100630.59;;;23.46;47.31
17764;BME280;22245;52.832;13.816;2023-07-30T13:55:57;100638.09;;;23.50;47.29
17764;BME280;22245;52.832;13.816;2023-07-30T13:59:19;100628.09;;;23.44;46.94
17764;BME280;22245;52.832;13.816;2023-07-30T14:02:41;100630.44;;;23.40;47.46
17764;BME280;22245;52.832;13.816;2023-07-30T14:06:02;100636.91;;;23.39;47.14
17764;BME280;22245;52.832;13.816;2023-07-30T14:09:24;100642.56;;;23.38;46.40
17764;BME280;22245;52.832;13.816;2023-07-30T14:12:54;100634.25;;;23.33;47.42
17764;BME280;22245;52.832;13.816;2023-07-30T14:16:15;100640.72;;;23.32;46.98
17764;BME280;22245;52.832;13.816;2023-07-30T14:19:37;100642.22;;;23.27;47.46
17764;BME280;22245;52.832;13.816;2023-07-30T14:22:59;100645.13;;;23.26;47.76
17764;BME280;22245;52.832;13.816;2023-07-30T14:26:21;100635.13;;;23.26;47.23
17764;BME280;22245;52.832;13.816;2023-07-30T14:29:45;100640.97;;;23.23;47.27
17764;BME280;22245;52.832;13.816;2023-07-30T14:33:07;100644.50;;;23.24;48.76
17764;BME280;22245;52.832;13.816;2023-07-30T14:36:29;100641.38;;;23.27;48.15
17764;BME280;22245;52.832;13.816;2023-07-30T14:39:51;100645.34;;;23.31;48.65
17764;BME280;22245;52.832;13.816;2023-07-30T14:43:12;100647.38;;;23.36;48.27
17764;BME280;22245;52.832;13.816;2023-07-30T14:46:36;100651.31;;;23.40;47.96
17764;BME280;22245;52.832;13.816;2023-07-30T14:49:58;100650.69;;;23.45;48.04
17764;BME280;22245;52.832;13.816;2023-07-30T14:53:19;100663.66;;;23.42;47.85
17764;BME280;22245;52.832;13.816;2023-07-30T14:56:41;100667.19;;;23.43;48.33
17764;BME280;22245;52.832;13.816;2023-07-30T15:00:03;100656.94;;;23.45;48.26
17764;BME280;22245;52.832;13.816;2023-07-30T15:03:52;100667.16;;;23.50;47.59
17764;BME280;22245;52.832;13.816;2023-07-30T15:07:14;100672.59;;;23.50;46.87
17764;BME280;22245;52.832;13.816;2023-07-30T15:10:35;100665.28;;;23.50;47.16
17764;BME280;22245;52.832;13.816;2023-07-30T15:13:57;100669.22;;;23.54;46.85
17764;BME280;22245;52.832;13.816;2023-07-30T15:17:19;100658.78;;;23.51;45.74
17764;BME280;22245;52.832;13.816;2023-07-30T15:20:42;100659.44;;;23.47;45.14
17764;BME280;22245;52.832;13.816;2023-07-30T15:24:04;100650.44;;;23.46;46.34
17764;BME280;22245;52.832;13.816;2023-07-30T15:27:25;100659.00;;;23.50;46.44
17764;BME280;22245;52.832;13.816;2023-07-30T15:30:47;100657.78;;;23.46;45.33
17764;BME280;22245;52.832;13.816;2023-07-30T15:34:08;100654.88;;;23.40;45.31
17764;BME280;22245;52.832;13.816;2023-07-30T15:37:33;100652.00;;;23.35;46.14
17764;BME280;22245;52.832;13.816;2023-07-30T15:40:55;100651.59;;;23.32;46.27
17764;BME280;22245;52.832;13.816;2023-07-30T15:44:17;100654.53;;;23.23;46.51
17764;BME280;22245;52.832;13.816;2023-07-30T15:47:38;100648.75;;;23.13;47.36
17764;BME280;22245;52.832;13.816;2023-07-30T15:51:02;100652.72;;;23.10;49.55
17764;BME280;22245;52.832;13.816;2023-07-30T15:54:35;100638.28;;;23.10;49.30
17764;BME280;22245;52.832;13.816;2023-07-30T15:57:57;100629.84;;;23.32;47.22
17764;BME280;22245;52.832;13.816;2023-07-30T16:01:19;100638.78;;;23.39;44.55
17764;BME280;22245;52.832;13.816;2023-07-30T16:04:42;100644.50;;;23.31;45.06
17764;BME280;22245;52.832;13.816;2023-07-30T16:08:04;100643.66;;;23.23;43.64
17764;BME280;22245;52.832;13.816;2023-07-30T16:11:27;100644.09;;;23.20;43.50
17764;BME280;22245;52.832;13.816;2023-07-30T16:14:50;100637.81;;;23.20;43.78
17764;BME280;22245;52.832;13.816;2023-07-30T16:18:12;100637.81;;;23.20;44.33
17764;BME280;22245;52.832;13.816;2023-07-30T16:21:34;100643.69;;;23.17;44.78
17764;BME280;22245;52.832;13.816;2023-07-30T16:24:57;100642.28;;;23.07;44.62
17764;BME280;22245;52.832;13.816;2023-07-30T16:28:20;100655.91;;;23.01;44.98
17764;BME280;22245;52.832;13.816;2023-07-30T16:31:42;100657.81;;;22.93;45.57
17764;BME280;22245;52.832;13.816;2023-07-30T16:35:04;100666.22;;;22.78;45.88
17764;BME280;22245;52.832;13.816;2023-07-30T16:38:27;100664.56;;;22.70;47.08
17764;BME280;22245;52.832;13.816;2023-07-30T16:41:48;100667.94;;;22.66;47.77
17764;BME280;22245;52.832;13.816;2023-07-30T16:45:12;100661.72;;;22.52;49.98
17764;BME280;22245;52.832;13.816;2023-07-30T16:48:33;100667.34;;;22.44;52.06
17764;BME280;22245;52.832;13.816;2023-07-30T16:51:55;100666.94;;;22.33;52.07
17764;BME280;22245;52.832;13.816;2023-07-30T16:55:16;100674.25;;;22.26;55.24
17764;BME280;22245;52.832;13.816;2023-07-30T16:58:38;100664.47;;;22.18;55.94
17764;BME280;22245;52.832;13.816;2023-07-30T17:02:01;100677.81;;;22.20;57.26
17764;BME280;22245;52.832;13.816;2023-07-30T17:05:23;100692.84;;;22.22;56.36
17764;BME280;22245;52.832;13.816;2023-07-30T17:08:45;100710.34;;;22.20;56.75
17764;BME280;22245;52.832;13.816;2023-07-30T17:12:07;100710.16;;;22.21;57.60
17764;BME280;22245;52.832;13.816;2023-07-30T17:15:28;100709.53;;;22.12;55.89
17764;BME280;22245;52.832;13.816;2023-07-30T17:18:51;100707.03;;;22.04;55.29
17764;BME280;22245;52.832;13.816;2023-07-30T17:22:14;100694.94;;;22.00;56.88
17764;BME280;22245;52.832;13.816;2023-07-30T17:25:36;100701.59;;;21.97;55.25
17764;BME280;22245;52.832;13.816;2023-07-30T17:28:58;100702.00;;;21.88;53.28
17764;BME280;22245;52.832;13.816;2023-07-30T17:32:19;100712.63;;;21.82;53.60
17764;BME280;22245;52.832;13.816;2023-07-30T17:35:43;100708.06;;;21.83;54.60
17764;BME280;22245;52.832;13.816;2023-07-30T17:39:04;100709.91;;;21.82;54.26